createdAt,value
2023-04-23T00:02:18.549Z,13.25
2023-04-23T00:04:50.693Z,13.29
2023-04-23T00:07:19.356Z,13.33
2023-04-23T00:09:46.601Z,13.34
2023-04-23T00:12:14.124Z,13.33
2023-04-23T00:14:41.362Z,13.34
2023-04-23T00:17:08.290Z,13.35
2023-04-23T00:19:35.180Z,13.36
2023-04-23T00:22:02.004Z,13.36
2023-04-23T00:24:28.803Z,13.36
2023-04-23T00:26:55.656Z,13.37
2023-04-23T00:29:22.454Z,13.34
2023-04-23T00:31:49.411Z,13.36
2023-04-23T00:34:16.235Z,13.38
2023-04-23T00:36:43.227Z,13.38
2023-04-23T00:39:11.538Z,13.36
2023-04-23T00:41:38.311Z,13.37
2023-04-23T00:44:05.763Z,13.41
2023-04-23T00:46:32.690Z,13.42
2023-04-23T00:49:00.545Z,13.42
2023-04-23T00:51:28.291Z,13.40
2023-04-23T00:53:55.857Z,13.42
2023-04-23T00:56:24.320Z,13.41
2023-04-23T00:58:52.081Z,13.43
2023-04-23T01:01:21.069Z,13.39
2023-04-23T01:03:50.024Z,13.42
2023-04-23T01:06:17.630Z,13.40
2023-04-23T01:08:45.504Z,13.37
2023-04-23T01:11:14.849Z,13.38
2023-04-23T01:13:42.728Z,13.38
2023-04-23T01:16:10.334Z,13.36
2023-04-23T01:18:38.316Z,13.37
2023-04-23T01:21:07.175Z,13.36
2023-04-23T01:23:34.141Z,13.36
2023-04-23T01:26:04.352Z,13.34
2023-04-23T01:28:31.373Z,13.33
2023-04-23T01:30:58.654Z,13.34
2023-04-23T01:33:26.764Z,13.36
2023-04-23T01:35:54.714Z,13.36
2023-04-23T01:38:23.085Z,13.40
2023-04-23T01:40:50.591Z,13.38
2023-04-23T01:43:17.982Z,13.36
2023-04-23T01:45:45.245Z,13.35
2023-04-23T01:48:12.196Z,13.33
2023-04-23T01:50:40.000Z,13.35
2023-04-23T01:53:06.894Z,13.34
2023-04-23T01:55:35.192Z,13.32
2023-04-23T01:58:02.038Z,13.35
2023-04-23T02:00:30.143Z,13.36
2023-04-23T02:02:57.904Z,13.33
2023-04-23T02:05:26.059Z,13.33
2023-04-23T02:07:53.241Z,13.32
2023-04-23T02:10:21.028Z,13.28
2023-04-23T02:12:48.431Z,13.24
2023-04-23T02:15:16.212Z,13.23
2023-04-23T02:17:43.552Z,13.21
2023-04-23T02:20:11.930Z,13.21
2023-04-23T02:22:40.603Z,13.23
2023-04-23T02:25:08.903Z,13.24
2023-04-23T02:27:36.500Z,13.23
2023-04-23T02:30:04.202Z,13.23
2023-04-23T02:32:31.490Z,13.29
2023-04-23T02:34:59.946Z,13.28
2023-04-23T02:37:27.470Z,13.27
2023-04-23T02:39:54.681Z,13.24
2023-04-23T02:42:21.541Z,13.24
2023-04-23T02:44:48.537Z,13.24
2023-04-23T02:47:15.702Z,13.21
2023-04-23T02:49:42.882Z,13.22
2023-04-23T02:52:10.083Z,13.21
2023-04-23T02:54:38.187Z,13.22
2023-04-23T02:57:05.331Z,13.20
2023-04-23T02:59:32.745Z,13.22
2023-04-23T03:01:59.778Z,13.17
2023-04-23T03:04:26.774Z,13.16
2023-04-23T03:06:53.663Z,13.13
2023-04-23T03:09:20.525Z,13.12
2023-04-23T03:11:51.207Z,13.13
2023-04-23T03:14:18.037Z,13.15
2023-04-23T03:16:45.095Z,13.16
2023-04-23T03:19:12.040Z,13.16
2023-04-23T03:21:38.983Z,13.14
2023-04-23T03:24:06.065Z,13.10
2023-04-23T03:26:33.157Z,13.08
2023-04-23T03:29:00.300Z,13.12
2023-04-23T03:31:27.432Z,13.14
2023-04-23T03:33:54.390Z,13.13
2023-04-23T03:36:21.759Z,13.13
2023-04-23T03:38:48.850Z,13.13
2023-04-23T03:41:15.860Z,13.12
2023-04-23T03:43:42.769Z,13.14
2023-04-23T03:46:09.730Z,13.13
2023-04-23T03:48:36.601Z,13.14
2023-04-23T03:51:03.960Z,13.16
2023-04-23T03:53:31.216Z,13.18
2023-04-23T03:55:58.283Z,13.18
2023-04-23T03:58:25.195Z,13.16
2023-04-23T04:00:53.202Z,13.15
2023-04-23T04:03:20.309Z,13.16
2023-04-23T04:05:47.531Z,13.17
2023-04-23T04:08:15.003Z,13.19
2023-04-23T04:10:41.947Z,13.19
2023-04-23T04:13:08.839Z,13.18
2023-04-23T04:15:35.932Z,13.19
2023-04-23T04:18:03.035Z,13.18
2023-04-23T04:20:32.415Z,13.18
2023-04-23T04:22:59.486Z,13.16
2023-04-23T04:25:29.274Z,13.16
2023-04-23T04:27:56.161Z,13.15
2023-04-23T04:30:23.438Z,13.15
2023-04-23T04:32:51.491Z,13.14
2023-04-23T04:35:18.434Z,13.09
2023-04-23T04:37:45.427Z,13.07
2023-04-23T04:40:13.048Z,13.07
2023-04-23T04:42:40.001Z,13.03
2023-04-23T04:45:09.087Z,13.01
2023-04-23T04:47:36.600Z,12.96
2023-04-23T04:50:03.960Z,12.99
2023-04-23T04:52:31.366Z,13.01
2023-04-23T04:54:58.849Z,13.02
2023-04-23T04:57:26.031Z,13.02
2023-04-23T04:59:52.938Z,12.99
2023-04-23T05:02:21.803Z,12.99
2023-04-23T05:04:49.284Z,13.02
2023-04-23T05:07:16.623Z,13.00
2023-04-23T05:09:45.088Z,12.99
2023-04-23T05:12:12.570Z,12.98
2023-04-23T05:14:40.123Z,13.00
2023-04-23T05:17:07.485Z,13.00
2023-04-23T05:19:34.655Z,13.02
2023-04-23T05:22:04.277Z,13.01
2023-04-23T05:24:31.274Z,13.00
2023-04-23T05:26:58.340Z,12.99
2023-04-23T05:29:25.403Z,12.99
2023-04-23T05:31:52.523Z,13.00
2023-04-23T05:34:20.394Z,13.02
2023-04-23T05:36:48.115Z,13.07
2023-04-23T05:39:16.727Z,13.06
2023-04-23T05:41:44.182Z,13.10
2023-04-23T05:44:12.041Z,13.11
2023-04-23T05:46:39.169Z,13.12
2023-04-23T05:49:06.806Z,13.16
2023-04-23T05:51:36.339Z,13.14
2023-04-23T05:54:04.287Z,13.14
2023-04-23T05:56:31.574Z,13.15
2023-04-23T05:58:58.419Z,13.19
2023-04-23T06:01:26.083Z,13.21
2023-04-23T06:03:53.963Z,13.20
2023-04-23T06:06:21.141Z,13.25
2023-04-23T06:08:48.488Z,13.26
2023-04-23T06:11:15.503Z,13.25
2023-04-23T06:13:43.948Z,13.20
2023-04-23T06:16:12.178Z,13.18
2023-04-23T06:18:40.215Z,13.20
2023-04-23T06:21:07.401Z,13.18
2023-04-23T06:23:35.140Z,13.19
2023-04-23T06:26:04.885Z,13.20
2023-04-23T06:28:32.286Z,13.22
2023-04-23T06:31:00.867Z,13.21
2023-04-23T06:33:28.777Z,13.23
2023-04-23T06:35:55.899Z,13.31
2023-04-23T06:38:23.523Z,13.35
2023-04-23T06:40:50.720Z,13.37
2023-04-23T06:43:17.881Z,13.39
2023-04-23T06:45:45.063Z,13.42
2023-04-23T06:48:13.507Z,13.41
2023-04-23T06:50:41.051Z,13.40
2023-04-23T06:53:10.132Z,13.42
2023-04-23T06:55:37.664Z,13.49
2023-04-23T06:58:07.648Z,13.53
2023-04-23T07:00:37.990Z,13.54
2023-04-23T07:03:05.455Z,13.70
2023-04-23T07:05:32.954Z,14.24
2023-04-23T07:08:00.952Z,14.60
2023-04-23T07:10:29.157Z,14.71
2023-04-23T07:12:56.568Z,14.63
2023-04-23T07:15:24.140Z,14.53
2023-04-23T07:17:51.563Z,14.46
2023-04-23T07:20:22.793Z,14.39
2023-04-23T07:22:50.157Z,14.35
2023-04-23T07:25:23.690Z,14.32
2023-04-23T07:27:51.677Z,14.29
2023-04-23T07:30:19.892Z,14.37
2023-04-23T07:32:51.900Z,14.43
2023-04-23T07:35:20.219Z,14.50
2023-04-23T07:37:47.544Z,14.48
2023-04-23T07:40:16.140Z,14.47
2023-04-23T07:42:43.743Z,14.48
2023-04-23T07:45:14.747Z,14.49
2023-04-23T07:47:42.466Z,14.51
2023-04-23T07:50:14.905Z,14.55
2023-04-23T07:52:43.590Z,14.61
2023-04-23T07:55:12.141Z,14.61
2023-04-23T07:57:39.749Z,14.58
2023-04-23T08:00:14.484Z,14.57
2023-04-23T08:02:42.451Z,14.54
2023-04-23T08:05:11.114Z,14.51
2023-04-23T08:07:39.363Z,14.50
2023-04-23T08:10:08.191Z,14.50
2023-04-23T08:12:46.907Z,14.43
2023-04-23T08:15:16.869Z,14.39
2023-04-23T08:17:55.212Z,14.42
2023-04-23T08:20:26.313Z,14.43
2023-04-23T08:25:42.696Z,14.39
2023-04-23T08:31:15.179Z,14.37
2023-04-23T08:33:50.593Z,14.41
2023-04-23T08:36:24.497Z,14.42
2023-04-23T08:38:56.466Z,14.46
2023-04-23T08:41:54.034Z,14.47
2023-04-23T08:44:39.150Z,14.46
2023-04-23T08:47:27.565Z,14.47
2023-04-23T08:52:54.264Z,14.53
2023-04-23T08:55:41.864Z,14.54
2023-04-23T08:58:27.444Z,14.53
2023-04-23T09:00:55.635Z,14.49
2023-04-23T09:03:24.689Z,14.51
2023-04-23T09:05:53.492Z,14.53
2023-04-23T09:08:21.588Z,14.62
2023-04-23T09:10:48.762Z,14.71
2023-04-23T09:13:15.618Z,14.76
2023-04-23T09:15:43.984Z,14.79
2023-04-23T09:18:11.287Z,14.76
2023-04-23T09:20:38.291Z,14.71
2023-04-23T09:23:08.639Z,14.69
2023-04-23T09:25:37.006Z,14.69
2023-04-23T09:28:07.974Z,14.74
2023-04-23T09:30:39.415Z,14.74
2023-04-23T09:33:06.470Z,14.73
2023-04-23T09:35:36.051Z,14.74
2023-04-23T09:38:07.987Z,14.78
2023-04-23T09:40:35.121Z,14.79
2023-04-23T09:43:03.816Z,14.81
2023-04-23T09:45:31.143Z,14.84
2023-04-23T09:47:58.656Z,14.85
2023-04-23T09:50:34.980Z,14.76
2023-04-23T09:53:01.956Z,14.78
2023-04-23T09:55:31.141Z,14.77
2023-04-23T09:57:58.625Z,14.78
2023-04-23T10:00:29.723Z,14.76
2023-04-23T10:02:56.848Z,14.78
2023-04-23T10:05:25.928Z,14.75
2023-04-23T10:07:57.841Z,14.68
2023-04-23T10:10:25.109Z,14.62
2023-04-23T10:12:55.877Z,14.58
2023-04-23T10:15:23.955Z,14.54
2023-04-23T10:17:52.042Z,14.59
2023-04-23T10:20:21.368Z,14.63
2023-04-23T10:22:48.741Z,14.66
2023-04-23T10:25:16.206Z,14.68
2023-04-23T10:27:52.196Z,14.69
2023-04-23T10:30:20.752Z,14.69
2023-04-23T10:32:49.102Z,14.72
2023-04-23T10:35:16.288Z,14.72
2023-04-23T10:37:44.658Z,14.79
2023-04-23T10:40:14.650Z,14.85
2023-04-23T10:42:43.391Z,14.92
2023-04-23T10:45:23.424Z,14.98
2023-04-23T10:47:51.467Z,15.01
2023-04-23T10:50:21.353Z,14.96
2023-04-23T10:52:51.964Z,15.01
2023-04-23T10:55:20.034Z,15.05
2023-04-23T10:57:55.937Z,15.05
2023-04-23T11:00:22.885Z,15.04
2023-04-23T11:02:51.381Z,15.13
2023-04-23T11:05:18.706Z,15.18
2023-04-23T11:07:55.089Z,15.20
2023-04-23T11:10:22.080Z,15.23
2023-04-23T11:12:49.049Z,15.26
2023-04-23T11:15:17.089Z,15.27
2023-04-23T11:17:44.255Z,15.30
2023-04-23T11:20:13.817Z,15.26
2023-04-23T11:22:43.092Z,15.20
2023-04-23T11:25:11.315Z,15.18
2023-04-23T11:27:39.494Z,15.19
2023-04-23T11:30:11.293Z,15.23
2023-04-23T11:32:38.182Z,15.19
2023-04-23T11:35:05.883Z,15.17
2023-04-23T11:37:32.869Z,15.19
2023-04-23T11:40:07.250Z,15.21
2023-04-23T11:42:40.998Z,15.18
2023-04-23T11:45:08.271Z,15.15
2023-04-23T11:47:35.265Z,15.24
2023-04-23T11:50:02.485Z,15.31
2023-04-23T11:52:29.331Z,15.41
2023-04-23T11:54:56.607Z,15.48
2023-04-23T11:57:23.510Z,15.54
2023-04-23T11:59:53.760Z,15.54
2023-04-23T12:02:25.468Z,15.50
2023-04-23T12:04:52.451Z,15.46
2023-04-23T12:07:26.471Z,15.41
2023-04-23T12:09:58.466Z,15.36
2023-04-23T12:12:32.888Z,15.31
2023-04-23T12:15:07.764Z,15.23
2023-04-23T12:17:35.047Z,15.18
2023-04-23T12:20:05.044Z,15.14
2023-04-23T12:22:32.128Z,15.09
2023-04-23T12:25:00.583Z,14.97
2023-04-23T12:27:28.765Z,14.84
2023-04-23T12:30:05.040Z,14.84
2023-04-23T12:32:36.453Z,14.86
2023-04-23T12:35:06.509Z,14.87
2023-04-23T12:37:36.160Z,14.90
2023-04-23T12:40:03.481Z,14.98
2023-04-23T12:42:30.589Z,15.06
2023-04-23T12:45:05.244Z,15.13
2023-04-23T12:47:32.419Z,15.13
2023-04-23T12:50:01.889Z,15.20
2023-04-23T12:52:28.945Z,15.24
2023-04-23T12:54:57.864Z,15.19
2023-04-23T12:57:24.983Z,15.05
2023-04-23T12:59:51.899Z,14.85
2023-04-23T13:02:18.941Z,14.68
2023-04-23T13:04:45.896Z,14.49
2023-04-23T13:07:15.853Z,14.35
2023-04-23T13:09:43.053Z,14.22
2023-04-23T13:12:10.523Z,14.09
2023-04-23T13:14:37.988Z,13.96
2023-04-23T13:17:04.928Z,13.86
2023-04-23T13:19:32.142Z,13.82
2023-04-23T13:21:59.165Z,13.75
2023-04-23T13:24:26.084Z,13.73
2023-04-23T13:26:53.011Z,13.66
2023-04-23T13:29:19.960Z,13.67
2023-04-23T13:31:47.042Z,13.65
2023-04-23T13:34:13.996Z,13.65
2023-04-23T13:36:42.003Z,13.68
2023-04-23T13:39:09.761Z,13.73
2023-04-23T13:41:36.703Z,13.74
2023-04-23T13:44:03.803Z,13.77
2023-04-23T13:46:31.058Z,13.84
2023-04-23T13:48:58.149Z,13.88
2023-04-23T13:51:34.900Z,13.92
2023-04-23T13:54:03.046Z,14.04
2023-04-23T13:56:32.862Z,14.17
2023-04-23T13:59:18.188Z,14.26
2023-04-23T14:01:47.386Z,14.33
2023-04-23T14:04:16.612Z,14.40
2023-04-23T14:06:43.663Z,14.47
2023-04-23T14:09:11.119Z,14.54
2023-04-23T14:11:40.516Z,14.56
2023-04-23T14:14:08.024Z,14.62
2023-04-23T14:16:35.780Z,14.64
2023-04-23T14:19:03.031Z,14.67
2023-04-23T14:21:30.009Z,14.66
2023-04-23T14:24:01.449Z,14.66
2023-04-23T14:26:47.117Z,14.72
2023-04-23T14:29:24.724Z,14.76
2023-04-23T14:31:52.009Z,14.87
2023-04-23T14:34:18.910Z,14.99
2023-04-23T14:36:49.503Z,15.14
2023-04-23T14:39:16.587Z,15.27
2023-04-23T14:41:43.584Z,15.32
2023-04-23T14:44:10.696Z,15.35
2023-04-23T14:46:37.916Z,15.40
2023-04-23T14:49:05.145Z,15.42
2023-04-23T14:51:32.091Z,15.40
2023-04-23T14:53:59.099Z,15.40
2023-04-23T14:56:26.498Z,15.43
2023-04-23T14:58:53.628Z,15.48
2023-04-23T15:01:20.780Z,15.59
2023-04-23T15:03:48.092Z,15.72
2023-04-23T15:06:15.551Z,15.79
2023-04-23T15:08:42.546Z,15.89
2023-04-23T15:11:13.751Z,16.00
2023-04-23T15:13:50.065Z,16.10
2023-04-23T15:16:40.068Z,16.17
2023-04-23T15:19:12.769Z,16.14
2023-04-23T15:21:39.928Z,16.07
2023-04-23T15:24:08.268Z,16.00
2023-04-23T15:26:35.269Z,15.96
2023-04-23T15:29:03.520Z,15.94
2023-04-23T15:31:30.576Z,16.00
2023-04-23T15:33:57.673Z,16.02
2023-04-23T15:36:27.055Z,16.01
2023-04-23T15:38:54.058Z,16.04
2023-04-23T15:41:21.100Z,16.03
2023-04-23T15:43:50.615Z,16.03
2023-04-23T15:46:17.614Z,16.09
2023-04-23T15:48:44.576Z,16.16
2023-04-23T15:51:11.563Z,16.21
2023-04-23T15:53:38.607Z,16.30
2023-04-23T15:56:05.595Z,16.30
2023-04-23T15:58:32.563Z,16.24
2023-04-23T16:00:59.530Z,16.16
2023-04-23T16:03:26.907Z,16.09
2023-04-23T16:05:54.125Z,15.99
2023-04-23T16:08:21.105Z,15.88
2023-04-23T16:10:48.005Z,15.82
2023-04-23T16:13:14.919Z,15.80
2023-04-23T16:15:41.926Z,15.86
2023-04-23T16:18:09.084Z,15.92
2023-04-23T16:20:36.651Z,15.98
2023-04-23T16:23:03.546Z,16.04
2023-04-23T16:25:30.483Z,16.08
2023-04-23T16:27:57.527Z,16.10
2023-04-23T16:30:24.526Z,16.09
2023-04-23T16:32:51.722Z,16.10
2023-04-23T16:35:18.710Z,16.11
2023-04-23T16:37:46.036Z,16.09
2023-04-23T16:40:15.745Z,16.05
2023-04-23T16:42:43.248Z,16.04
2023-04-23T16:45:10.363Z,16.04
2023-04-23T16:47:37.403Z,16.02
2023-04-23T16:50:04.427Z,15.98
2023-04-23T16:52:31.408Z,16.02
2023-04-23T16:54:58.676Z,16.03
2023-04-23T16:57:26.133Z,16.03
2023-04-23T16:59:54.386Z,16.06
2023-04-23T17:02:21.554Z,16.07
2023-04-23T17:04:49.148Z,16.07
2023-04-23T17:07:16.481Z,16.06
2023-04-23T17:09:43.798Z,16.06
2023-04-23T17:12:10.736Z,16.05
2023-04-23T17:14:37.667Z,16.03
2023-04-23T17:17:05.017Z,16.02
2023-04-23T17:19:32.082Z,15.99
2023-04-23T17:21:59.323Z,15.95
2023-04-23T17:24:26.323Z,15.88
2023-04-23T17:26:53.222Z,15.81
2023-04-23T17:29:21.750Z,15.69
2023-04-23T17:31:48.955Z,15.63
2023-04-23T17:34:16.228Z,15.53
2023-04-23T17:36:43.170Z,15.43
2023-04-23T17:39:10.074Z,15.37
2023-04-23T17:41:36.984Z,15.25
2023-04-23T17:44:04.217Z,15.18
2023-04-23T17:46:31.063Z,15.04
2023-04-23T17:48:58.009Z,14.90
2023-04-23T17:51:24.970Z,14.78
2023-04-23T17:53:52.484Z,14.72
2023-04-23T17:56:19.449Z,14.61
2023-04-23T17:58:46.587Z,14.56
2023-04-23T18:01:13.637Z,14.46
2023-04-23T18:03:40.692Z,14.38
2023-04-23T18:06:09.068Z,14.27
2023-04-23T18:08:36.747Z,14.21
2023-04-23T18:11:04.956Z,14.15
2023-04-23T18:13:32.055Z,14.08
2023-04-23T18:15:58.896Z,14.05
2023-04-23T18:18:26.360Z,14.01
2023-04-23T18:20:53.396Z,13.96
2023-04-23T18:23:22.530Z,13.95
2023-04-23T18:25:49.808Z,13.90
2023-04-23T18:28:16.821Z,13.84
2023-04-23T18:30:43.870Z,13.71
2023-04-23T18:33:12.366Z,13.55
2023-04-23T18:35:41.840Z,13.39
2023-04-23T18:38:11.290Z,13.24
2023-04-23T18:40:38.302Z,13.06
2023-04-23T18:43:05.446Z,12.89
2023-04-23T18:45:32.843Z,12.71
2023-04-23T18:48:09.224Z,12.55
2023-04-23T18:50:38.215Z,12.47
2023-04-23T18:53:05.663Z,12.43
2023-04-23T18:55:32.627Z,12.37
2023-04-23T18:57:59.765Z,12.30
2023-04-23T19:00:26.810Z,12.29
2023-04-23T19:02:53.901Z,12.23
2023-04-23T19:05:21.033Z,12.17
2023-04-23T19:07:48.726Z,12.12
2023-04-23T19:10:16.829Z,12.15
2023-04-23T19:12:44.550Z,12.16
2023-04-23T19:15:11.772Z,12.15
2023-04-23T19:17:39.027Z,12.07
2023-04-23T19:20:06.775Z,12.04
2023-04-23T19:22:33.682Z,12.06
2023-04-23T19:25:01.567Z,12.09
2023-04-23T19:27:28.501Z,12.12
2023-04-23T19:29:56.965Z,12.12
2023-04-23T19:32:24.175Z,12.12
2023-04-23T19:34:51.077Z,12.12
2023-04-23T19:37:17.985Z,12.12
2023-04-23T19:39:44.892Z,12.09
2023-04-23T19:42:15.364Z,12.07
2023-04-23T19:44:42.271Z,12.10
2023-04-23T19:47:09.208Z,12.13
2023-04-23T19:49:36.332Z,12.14
2023-04-23T19:52:04.118Z,12.12
2023-04-23T19:54:31.162Z,12.10
2023-04-23T19:56:58.026Z,12.13
2023-04-23T19:59:24.912Z,12.14
2023-04-23T20:01:51.793Z,12.15
2023-04-23T20:04:18.983Z,12.13
2023-04-23T20:06:46.427Z,12.13
2023-04-23T20:09:22.138Z,12.13
2023-04-23T20:11:49.167Z,12.14
2023-04-23T20:14:16.047Z,12.14
2023-04-23T20:16:43.054Z,12.12
2023-04-23T20:19:11.386Z,12.10
2023-04-23T20:21:39.272Z,12.09
2023-04-23T20:24:08.181Z,12.07
2023-04-23T20:26:36.224Z,12.08
2023-04-23T20:29:03.702Z,12.09
2023-04-23T20:31:31.354Z,12.11
2023-04-23T20:33:58.585Z,12.12
2023-04-23T20:36:29.204Z,12.13
2023-04-23T20:38:58.581Z,12.12
2023-04-23T20:41:26.613Z,12.10
2023-04-23T20:43:53.532Z,12.09
2023-04-23T20:46:20.667Z,12.03
2023-04-23T20:48:53.224Z,11.98
2023-04-23T20:51:20.467Z,11.95
2023-04-23T20:53:47.581Z,11.97
2023-04-23T20:56:14.699Z,11.96
2023-04-23T20:58:41.922Z,11.93
2023-04-23T21:01:11.653Z,11.92
2023-04-23T21:03:39.718Z,11.92
2023-04-23T21:06:08.084Z,11.91
2023-04-23T21:08:35.084Z,11.90
2023-04-23T21:11:02.372Z,11.91
2023-04-23T21:13:29.333Z,11.90
2023-04-23T21:15:56.403Z,11.89
2023-04-23T21:18:23.316Z,11.87
2023-04-23T21:20:50.189Z,11.86
2023-04-23T21:23:17.067Z,11.83
2023-04-23T21:25:43.897Z,11.82
2023-04-23T21:28:10.825Z,11.83
2023-04-23T21:30:47.099Z,11.82
2023-04-23T21:33:14.362Z,11.85
2023-04-23T21:35:41.355Z,11.87
2023-04-23T21:38:08.905Z,11.89
2023-04-23T21:40:37.060Z,11.89
2023-04-23T21:43:05.047Z,11.90
2023-04-23T21:45:32.374Z,11.91
2023-04-23T21:47:59.348Z,11.92
2023-04-23T21:50:27.732Z,11.92
2023-04-23T21:52:56.329Z,11.94
2023-04-23T21:55:23.420Z,11.94
2023-04-23T21:57:50.325Z,11.92
2023-04-23T22:00:17.760Z,11.89
2023-04-23T22:02:47.909Z,11.87
2023-04-23T22:05:21.547Z,11.85
2023-04-23T22:07:49.091Z,11.80
2023-04-23T22:10:16.621Z,11.78
2023-04-23T22:12:44.350Z,11.75
2023-04-23T22:15:13.448Z,11.72
2023-04-23T22:17:40.833Z,11.71
2023-04-23T22:20:08.773Z,11.72
2023-04-23T22:22:37.107Z,11.71
2023-04-23T22:25:06.636Z,11.73
2023-04-23T22:27:34.879Z,11.75
2023-04-23T22:30:02.065Z,11.76
2023-04-23T22:32:29.563Z,11.72
2023-04-23T22:34:56.579Z,11.70
2023-04-23T22:37:23.821Z,11.69
2023-04-23T22:39:50.636Z,11.69
2023-04-23T22:42:17.799Z,11.68
2023-04-23T22:44:44.884Z,11.67
2023-04-23T22:47:12.355Z,11.66
2023-04-23T22:49:39.232Z,11.61
2023-04-23T22:52:06.121Z,11.58
2023-04-23T22:54:33.040Z,11.56
2023-04-23T22:56:59.876Z,11.53
2023-04-23T22:59:27.310Z,11.56
2023-04-23T23:01:54.245Z,11.54
2023-04-23T23:04:21.156Z,11.53
2023-04-23T23:06:48.222Z,11.50
2023-04-23T23:09:15.119Z,11.47
2023-04-23T23:11:41.998Z,11.46
2023-04-23T23:14:08.935Z,11.46
2023-04-23T23:16:35.816Z,11.46
2023-04-23T23:19:03.239Z,11.43
2023-04-23T23:21:30.121Z,11.41
2023-04-23T23:23:56.911Z,11.42
2023-04-23T23:26:23.715Z,11.43
2023-04-23T23:28:50.587Z,11.46
2023-04-23T23:31:17.534Z,11.46
2023-04-23T23:33:44.618Z,11.49
2023-04-23T23:36:12.312Z,11.51
2023-04-23T23:38:39.458Z,11.53
2023-04-23T23:41:06.225Z,11.52
2023-04-23T23:43:33.177Z,11.51
2023-04-23T23:46:00.011Z,11.48
2023-04-23T23:48:27.055Z,11.51
2023-04-23T23:50:53.879Z,11.50
2023-04-23T23:53:20.754Z,11.51
2023-04-23T23:55:47.671Z,11.49
2023-04-23T23:58:14.480Z,11.45
